Time,TemperatureF,DewpointF,PressureIn,WindDirection,WindDirectionDegrees,WindSpeedMPH,WindSpeedGustMPH,Humidity,HourlyPrecipIn,Conditions,Clouds,dailyrainin,SolarRadiationWatts/m^2,SoftwareType,DateUTC
2013-01-25 00:02:00,54.0,52.0,-100.00,SE,125,3.0,7.0,94,0.00,,,0.00,0.000000,,2013-01-25 06:02:00,
2013-01-25 00:32:00,54.0,53.0,-100.00,East,92,3.0,6.0,96,0.00,,,0.00,0.000000,,2013-01-25 06:32:00,
2013-01-25 00:42:00,54.0,53.0,-100.00,East,92,3.0,6.0,96,0.00,,,0.00,0.000000,,2013-01-25 06:42:00,
2013-01-25 00:52:00,54.0,53.0,-100.00,East,92,3.0,6.0,96,0.00,,,0.00,0.000000,,2013-01-25 06:52:00,
2013-01-25 01:02:00,54.0,53.0,-100.00,East,92,3.0,6.0,96,0.00,,,0.00,0.000000,,2013-01-25 07:02:00,
2013-01-25 01:32:00,54.0,53.0,-100.00,ESE,107,5.0,7.0,97,0.00,,,0.00,0.000000,,2013-01-25 07:32:00,
2013-01-25 01:42:00,54.0,53.0,-100.00,ESE,107,5.0,7.0,97,0.00,,,0.00,0.000000,,2013-01-25 07:42:00,
2013-01-25 01:52:00,54.0,53.0,-100.00,ESE,107,5.0,7.0,97,0.00,,,0.00,0.000000,,2013-01-25 07:52:00,
2013-01-25 02:02:00,54.0,53.0,-100.00,ESE,107,5.0,7.0,97,0.00,,,0.00,0.000000,,2013-01-25 08:02:00,
2013-01-25 02:32:00,56.0,55.0,-100.00,SSE,150,5.0,8.0,98,0.00,,,0.00,0.000000,,2013-01-25 08:32:00,
2013-01-25 02:42:00,56.0,55.0,-100.00,SSE,150,5.0,8.0,98,0.00,,,0.00,0.000000,,2013-01-25 08:42:00,
2013-01-25 02:52:00,56.0,55.0,-100.00,SSE,150,5.0,8.0,98,0.00,,,0.00,0.000000,,2013-01-25 08:52:00,
2013-01-25 03:02:00,56.0,55.0,-100.00,SSE,150,5.0,8.0,98,0.00,,,0.00,0.000000,,2013-01-25 09:02:00,
2013-01-25 03:32:00,55.0,54.0,-100.00,SE,142,3.0,7.0,97,0.00,,,0.00,0.000000,,2013-01-25 09:32:00,
2013-01-25 03:42:00,55.0,54.0,-100.00,SE,142,3.0,7.0,97,0.00,,,0.00,0.000000,,2013-01-25 09:42:00,
2013-01-25 03:52:00,55.0,54.0,-100.00,SE,142,3.0,7.0,97,0.00,,,0.00,0.000000,,2013-01-25 09:52:00,
2013-01-25 04:02:00,55.0,54.0,-100.00,SE,142,3.0,7.0,97,0.00,,,0.00,0.000000,,2013-01-25 10:02:00,
2013-01-25 04:32:00,55.0,54.0,-100.00,South,188,3.0,5.0,98,0.00,,,0.00,0.000000,,2013-01-25 10:32:00,
2013-01-25 04:42:00,55.0,54.0,-100.00,South,188,3.0,5.0,98,0.00,,,0.00,0.000000,,2013-01-25 10:42:00,
2013-01-25 04:52:00,55.0,54.0,-100.00,South,188,3.0,5.0,98,0.00,,,0.00,0.000000,,2013-01-25 10:52:00,
2013-01-25 05:02:00,55.0,54.0,-100.00,South,188,3.0,5.0,98,0.00,,,0.00,0.000000,,2013-01-25 11:02:00,
2013-01-25 05:33:00,55.0,54.0,-100.00,West,268,4.0,7.0,97,0.00,,,0.00,0.000000,,2013-01-25 11:33:00,
2013-01-25 05:42:00,55.0,54.0,-100.00,West,268,4.0,7.0,97,0.00,,,0.00,0.000000,,2013-01-25 11:42:00,
2013-01-25 05:52:00,55.0,54.0,-100.00,West,268,4.0,7.0,97,0.00,,,0.00,0.000000,,2013-01-25 11:52:00,
2013-01-25 06:02:00,55.0,54.0,-100.00,West,268,4.0,7.0,97,0.00,,,0.00,0.000000,,2013-01-25 12:02:00,
2013-01-25 06:33:00,54.0,52.0,-100.00,WNW,294,4.0,6.0,94,0.00,,,0.00,0.000000,,2013-01-25 12:33:00,
2013-01-25 06:42:00,54.0,52.0,-100.00,WNW,294,4.0,6.0,94,0.00,,,0.00,0.000000,,2013-01-25 12:42:00,
2013-01-25 06:53:00,54.0,52.0,-100.00,WNW,294,4.0,6.0,94,0.00,,,0.00,0.000000,,2013-01-25 12:53:00,
2013-01-25 07:02:00,54.0,52.0,-100.00,WNW,294,4.0,6.0,94,0.00,,,0.00,0.000000,,2013-01-25 13:02:00,
2013-01-25 07:33:00,49.0,48.0,-100.00,NNE,12,6.0,11.0,97,0.00,,,0.00,0.000000,,2013-01-25 13:33:00,
2013-01-25 07:43:00,49.0,48.0,-100.00,NNE,12,6.0,11.0,97,0.00,,,0.00,0.000000,,2013-01-25 13:43:00,
2013-01-25 07:53:00,49.0,48.0,-100.00,NNE,12,6.0,11.0,97,0.00,,,0.00,0.000000,,2013-01-25 13:53:00,
2013-01-25 08:03:00,49.0,48.0,-100.00,NNE,12,6.0,11.0,97,0.00,,,0.00,0.000000,,2013-01-25 14:03:00,
2013-01-25 08:33:00,45.0,44.0,-100.00,North,10,8.0,14.0,97,0.00,,,0.00,2.000000,,2013-01-25 14:33:00,
2013-01-25 08:42:00,45.0,44.0,-100.00,North,10,8.0,14.0,97,0.00,,,0.00,2.000000,,2013-01-25 14:42:00,
2013-01-25 08:53:00,45.0,44.0,-100.00,North,10,8.0,14.0,97,0.00,,,0.00,2.000000,,2013-01-25 14:53:00,
2013-01-25 09:02:00,45.0,44.0,-100.00,North,10,8.0,14.0,97,0.00,,,0.00,2.000000,,2013-01-25 15:02:00,
2013-01-25 09:33:00,45.0,44.0,-100.00,NNE,12,6.0,14.0,95,0.00,,,0.00,40.000000,,2013-01-25 15:33:00,
2013-01-25 09:43:00,45.0,44.0,-100.00,NNE,12,6.0,14.0,95,0.00,,,0.00,40.000000,,2013-01-25 15:43:00,
2013-01-25 09:53:00,45.0,44.0,-100.00,NNE,12,6.0,14.0,95,0.00,,,0.00,40.000000,,2013-01-25 15:53:00,
2013-01-25 10:03:00,45.0,44.0,-100.00,NNE,12,6.0,14.0,95,0.00,,,0.00,40.000000,,2013-01-25 16:03:00,
2013-01-25 10:33:00,47.0,45.0,-100.00,North,7,6.0,10.0,94,0.00,,,0.00,131.000000,,2013-01-25 16:33:00,
2013-01-25 10:43:00,47.0,45.0,-100.00,North,7,6.0,10.0,94,0.00,,,0.00,131.000000,,2013-01-25 16:43:00,
2013-01-25 10:53:00,47.0,45.0,-100.00,North,7,6.0,10.0,94,0.00,,,0.00,131.000000,,2013-01-25 16:53:00,
2013-01-25 11:02:00,47.0,45.0,-100.00,North,7,6.0,10.0,94,0.00,,,0.00,131.000000,,2013-01-25 17:02:00,
2013-01-25 11:33:00,45.0,43.0,-100.00,NNW,340,9.0,15.0,91,0.00,,,0.00,124.000000,,2013-01-25 17:33:00,
2013-01-25 11:43:00,45.0,43.0,-100.00,NNW,340,9.0,15.0,91,0.00,,,0.00,124.000000,,2013-01-25 17:43:00,
2013-01-25 11:53:00,45.0,43.0,-100.00,NNW,340,9.0,15.0,91,0.00,,,0.00,124.000000,,2013-01-25 17:53:00,
2013-01-25 12:03:00,45.0,43.0,-100.00,NNW,340,9.0,15.0,91,0.00,,,0.00,124.000000,,2013-01-25 18:03:00,
2013-01-25 12:33:00,46.0,43.0,-100.00,NNE,24,9.0,14.0,89,0.00,,,0.00,181.000000,,2013-01-25 18:33:00,
2013-01-25 12:43:00,46.0,43.0,-100.00,NNE,24,9.0,14.0,89,0.00,,,0.00,181.000000,,2013-01-25 18:43:00,
2013-01-25 12:52:00,46.0,43.0,-100.00,NNE,24,9.0,14.0,89,0.00,,,0.00,181.000000,,2013-01-25 18:52:00,
2013-01-25 13:03:00,46.0,43.0,-100.00,NNE,24,9.0,14.0,89,0.00,,,0.00,181.000000,,2013-01-25 19:03:00,
2013-01-25 13:33:00,49.0,43.0,-100.00,NNE,27,7.0,12.0,81,0.00,,,0.00,238.000000,,2013-01-25 19:33:00,
2013-01-25 13:42:00,49.0,43.0,-100.00,NNE,27,7.0,12.0,81,0.00,,,0.00,238.000000,,2013-01-25 19:42:00,
2013-01-25 13:53:00,49.0,43.0,-100.00,NNE,27,7.0,12.0,81,0.00,,,0.00,238.000000,,2013-01-25 19:53:00,
2013-01-25 14:03:00,49.0,43.0,-100.00,NNE,27,7.0,12.0,81,0.00,,,0.00,238.000000,,2013-01-25 20:03:00,
2013-01-25 14:33:00,51.0,44.0,-100.00,NNE,29,7.0,12.0,76,0.00,,,0.00,218.000000,,2013-01-25 20:33:00,
2013-01-25 14:43:00,51.0,44.0,-100.00,NNE,29,7.0,12.0,76,0.00,,,0.00,218.000000,,2013-01-25 20:43:00,
2013-01-25 14:52:00,51.0,44.0,-100.00,NNE,29,7.0,12.0,76,0.00,,,0.00,218.000000,,2013-01-25 20:52:00,
2013-01-25 15:02:00,51.0,44.0,-100.00,NNE,29,7.0,12.0,76,0.00,,,0.00,218.000000,,2013-01-25 21:02:00,
2013-01-25 15:33:00,52.0,44.0,-100.00,NNE,18,6.0,11.0,73,0.00,,,0.00,134.000000,,2013-01-25 21:33:00,
2013-01-25 15:43:00,52.0,44.0,-100.00,NNE,18,6.0,11.0,73,0.00,,,0.00,134.000000,,2013-01-25 21:43:00,
2013-01-25 15:52:00,52.0,44.0,-100.00,NNE,18,6.0,11.0,73,0.00,,,0.00,134.000000,,2013-01-25 21:52:00,
2013-01-25 16:03:00,52.0,44.0,-100.00,NNE,18,6.0,11.0,73,0.00,,,0.00,134.000000,,2013-01-25 22:03:00,
2013-01-25 16:33:00,53.0,43.0,-100.00,North,358,6.0,10.0,70,0.00,,,0.00,84.000000,,2013-01-25 22:33:00,
2013-01-25 16:42:00,53.0,43.0,-100.00,North,358,6.0,10.0,70,0.00,,,0.00,84.000000,,2013-01-25 22:42:00,
2013-01-25 16:53:00,53.0,43.0,-100.00,North,358,6.0,10.0,70,0.00,,,0.00,84.000000,,2013-01-25 22:53:00,
2013-01-25 17:02:00,53.0,43.0,-100.00,North,358,6.0,10.0,70,0.00,,,0.00,84.000000,,2013-01-25 23:02:00,
2013-01-25 17:32:00,53.0,43.0,-100.00,NNW,344,4.0,8.0,69,0.00,,,0.00,38.000000,,2013-01-25 23:32:00,
2013-01-25 17:42:00,53.0,43.0,-100.00,NNW,344,4.0,8.0,69,0.00,,,0.00,38.000000,,2013-01-25 23:42:00,
2013-01-25 17:53:00,53.0,43.0,-100.00,NNW,344,4.0,8.0,69,0.00,,,0.00,38.000000,,2013-01-25 23:53:00,
2013-01-25 18:02:00,53.0,43.0,-100.00,NNW,344,4.0,8.0,69,0.00,,,0.00,38.000000,,2013-01-26 00:02:00,
2013-01-25 18:33:00,51.0,40.0,-100.00,North,352,8.0,12.0,67,0.00,,,0.00,5.000000,,2013-01-26 00:33:00,
2013-01-25 18:42:00,51.0,40.0,-100.00,North,352,8.0,12.0,67,0.00,,,0.00,5.000000,,2013-01-26 00:42:00,
2013-01-25 18:53:00,51.0,40.0,-100.00,North,352,8.0,12.0,67,0.00,,,0.00,5.000000,,2013-01-26 00:53:00,
2013-01-25 19:02:00,51.0,40.0,-100.00,North,352,8.0,12.0,67,0.00,,,0.00,5.000000,,2013-01-26 01:02:00,
2013-01-25 19:32:00,49.0,39.0,-100.00,NNE,19,6.0,12.0,69,0.00,,,0.00,0.000000,,2013-01-26 01:32:00,
2013-01-25 19:42:00,49.0,39.0,-100.00,NNE,19,6.0,12.0,69,0.00,,,0.00,0.000000,,2013-01-26 01:42:00,
2013-01-25 19:52:00,49.0,39.0,-100.00,NNE,19,6.0,12.0,69,0.00,,,0.00,0.000000,,2013-01-26 01:52:00,
2013-01-25 20:01:00,49.0,39.0,-100.00,NNE,19,6.0,12.0,69,0.00,,,0.00,0.000000,,2013-01-26 02:01:00,
2013-01-25 20:32:00,49.0,39.0,-100.00,NE,37,6.0,12.0,69,0.00,,,0.00,0.000000,,2013-01-26 02:32:00,
2013-01-25 20:42:00,49.0,39.0,-100.00,NE,37,6.0,12.0,69,0.00,,,0.00,0.000000,,2013-01-26 02:42:00,
2013-01-25 20:52:00,49.0,39.0,-100.00,NE,37,6.0,12.0,69,0.00,,,0.00,0.000000,,2013-01-26 02:52:00,
2013-01-25 21:02:00,49.0,39.0,-100.00,NE,37,6.0,12.0,69,0.00,,,0.00,0.000000,,2013-01-26 03:02:00,
2013-01-25 21:32:00,48.0,38.0,-100.00,NNE,26,7.0,11.0,68,0.00,,,0.00,0.000000,,2013-01-26 03:32:00,
2013-01-25 21:43:00,48.0,38.0,-100.00,NNE,26,7.0,11.0,68,0.00,,,0.00,0.000000,,2013-01-26 03:43:00,
2013-01-25 21:52:00,48.0,38.0,-100.00,NNE,26,7.0,11.0,68,0.00,,,0.00,0.000000,,2013-01-26 03:52:00,
2013-01-25 22:02:00,48.0,38.0,-100.00,NNE,26,7.0,11.0,68,0.00,,,0.00,0.000000,,2013-01-26 04:02:00,
2013-01-25 22:32:00,48.0,39.0,-100.00,NNE,32,8.0,11.0,70,0.00,,,0.00,0.000000,,2013-01-26 04:32:00,
2013-01-25 22:43:00,48.0,39.0,-100.00,NNE,32,8.0,11.0,70,0.00,,,0.00,0.000000,,2013-01-26 04:43:00,
2013-01-25 22:52:00,48.0,39.0,-100.00,NNE,32,8.0,11.0,70,0.00,,,0.00,0.000000,,2013-01-26 04:52:00,
2013-01-25 23:03:00,48.0,39.0,-100.00,NNE,32,8.0,11.0,70,0.00,,,0.00,0.000000,,2013-01-26 05:03:00,
2013-01-25 23:33:00,48.0,39.0,-100.00,NE,40,6.0,10.0,71,0.00,,,0.00,0.000000,,2013-01-26 05:33:00,
2013-01-25 23:42:00,48.0,39.0,-100.00,NE,40,6.0,10.0,71,0.00,,,0.00,0.000000,,2013-01-26 05:42:00,
2013-01-25 23:52:00,48.0,39.0,-100.00,NE,40,6.0,10.0,71,0.00,,,0.00,0.000000,,2013-01-26 05:52:00,